sensor_id;sensor_type;location;lat;lon;timestamp;P1;durP1;ratioP1;P2;durP2;ratioP2
16854;SDS011;8543;54.522;18.550;2023-02-01T00:02:02;4.90;;;1.40;;
16854;SDS011;8543;54.522;18.550;2023-02-01T00:04:28;5.70;;;1.60;;
16854;SDS011;8543;54.522;18.550;2023-02-01T00:06:53;5.40;;;2.10;;
16854;SDS011;8543;54.522;18.550;2023-02-01T00:09:19;4.80;;;1.60;;
16854;SDS011;8543;54.522;18.550;2023-02-01T00:11:44;5.30;;;1.70;;
16854;SDS011;8543;54.522;18.550;2023-02-01T00:14:10;5.50;;;1.70;;
16854;SDS011;8543;54.522;18.550;2023-02-01T00:16:36;6.80;;;1.80;;
16854;SDS011;8543;54.522;18.550;2023-02-01T00:21:30;7.30;;;1.80;;
16854;SDS011;8543;54.522;18.550;2023-02-01T00:23:56;7.30;;;1.60;;
16854;SDS011;8543;54.522;18.550;2023-02-01T00:29:08;4.40;;;1.50;;
16854;SDS011;8543;54.522;18.550;2023-02-01T00:31:36;6.80;;;1.90;;
16854;SDS011;8543;54.522;18.550;2023-02-01T00:34:01;6.60;;;1.70;;
16854;SDS011;8543;54.522;18.550;2023-02-01T00:36:27;5.50;;;2.10;;
16854;SDS011;8543;54.522;18.550;2023-02-01T00:38:53;4.30;;;1.80;;
16854;SDS011;8543;54.522;18.550;2023-02-01T00:41:19;3.90;;;1.50;;
16854;SDS011;8543;54.522;18.550;2023-02-01T00:43:45;5.00;;;1.70;;
16854;SDS011;8543;54.522;18.550;2023-02-01T00:46:12;3.60;;;1.40;;
16854;SDS011;8543;54.522;18.550;2023-02-01T00:48:38;3.50;;;1.40;;
16854;SDS011;8543;54.522;18.550;2023-02-01T00:51:05;5.20;;;1.60;;
16854;SDS011;8543;54.522;18.550;2023-02-01T00:53:32;5.30;;;1.50;;
16854;SDS011;8543;54.522;18.550;2023-02-01T00:55:58;7.30;;;2.20;;
16854;SDS011;8543;54.522;18.550;2023-02-01T00:58:24;6.30;;;1.80;;
16854;SDS011;8543;54.522;18.550;2023-02-01T01:01:00;3.50;;;1.50;;
16854;SDS011;8543;54.522;18.550;2023-02-01T01:03:35;4.20;;;1.50;;
16854;SDS011;8543;54.522;18.550;2023-02-01T01:06:04;6.60;;;1.60;;
16854;SDS011;8543;54.522;18.550;2023-02-01T01:08:31;5.60;;;1.60;;
16854;SDS011;8543;54.522;18.550;2023-02-01T01:10:56;5.60;;;1.60;;
16854;SDS011;8543;54.522;18.550;2023-02-01T01:13:22;9.90;;;1.90;;
16854;SDS011;8543;54.522;18.550;2023-02-01T01:15:48;4.80;;;1.60;;
16854;SDS011;8543;54.522;18.550;2023-02-01T01:18:13;6.90;;;2.20;;
16854;SDS011;8543;54.522;18.550;2023-02-01T01:20:39;6.10;;;1.70;;
16854;SDS011;8543;54.522;18.550;2023-02-01T01:23:06;7.10;;;1.70;;
16854;SDS011;8543;54.522;18.550;2023-02-01T01:25:32;3.10;;;1.30;;
16854;SDS011;8543;54.522;18.550;2023-02-01T01:27:58;3.60;;;1.50;;
16854;SDS011;8543;54.522;18.550;2023-02-01T01:30:23;4.10;;;1.50;;
16854;SDS011;8543;54.522;18.550;2023-02-01T01:32:48;4.90;;;1.70;;
16854;SDS011;8543;54.522;18.550;2023-02-01T01:35:14;3.90;;;1.20;;
16854;SDS011;8543;54.522;18.550;2023-02-01T01:37:39;2.80;;;1.20;;
16854;SDS011;8543;54.522;18.550;2023-02-01T01:40:06;4.40;;;1.50;;
16854;SDS011;8543;54.522;18.550;2023-02-01T01:42:39;4.30;;;1.30;;
16854;SDS011;8543;54.522;18.550;2023-02-01T01:45:07;5.00;;;1.30;;
16854;SDS011;8543;54.522;18.550;2023-02-01T01:47:40;3.50;;;1.60;;
16854;SDS011;8543;54.522;18.550;2023-02-01T01:50:09;3.20;;;1.10;;
16854;SDS011;8543;54.522;18.550;2023-02-01T01:52:37;5.70;;;1.80;;
16854;SDS011;8543;54.522;18.550;2023-02-01T01:55:03;6.50;;;1.60;;
16854;SDS011;8543;54.522;18.550;2023-02-01T01:57:31;6.10;;;1.70;;
16854;SDS011;8543;54.522;18.550;2023-02-01T02:00:17;8.90;;;1.80;;
16854;SDS011;8543;54.522;18.550;2023-02-01T02:02:45;7.30;;;2.30;;
16854;SDS011;8543;54.522;18.550;2023-02-01T02:05:12;7.00;;;2.60;;
16854;SDS011;8543;54.522;18.550;2023-02-01T02:07:39;5.90;;;1.80;;
16854;SDS011;8543;54.522;18.550;2023-02-01T02:10:08;6.80;;;2.00;;
16854;SDS011;8543;54.522;18.550;2023-02-01T02:12:41;6.90;;;1.90;;
16854;SDS011;8543;54.522;18.550;2023-02-01T02:15:09;5.40;;;1.50;;
16854;SDS011;8543;54.522;18.550;2023-02-01T02:17:37;4.60;;;1.50;;
16854;SDS011;8543;54.522;18.550;2023-02-01T02:37:14;4.80;;;1.60;;
16854;SDS011;8543;54.522;18.550;2023-02-01T02:39:48;7.50;;;1.90;;
16854;SDS011;8543;54.522;18.550;2023-02-01T02:50:38;7.00;;;1.90;;
16854;SDS011;8543;54.522;18.550;2023-02-01T02:53:28;4.90;;;1.80;;
16854;SDS011;8543;54.522;18.550;2023-02-01T02:56:29;7.50;;;2.30;;
16854;SDS011;8543;54.522;18.550;2023-02-01T02:59:14;4.20;;;1.40;;
16854;SDS011;8543;54.522;18.550;2023-02-01T03:02:00;4.00;;;1.60;;
16854;SDS011;8543;54.522;18.550;2023-02-01T03:04:44;8.50;;;2.40;;
16854;SDS011;8543;54.522;18.550;2023-02-01T03:07:13;5.20;;;1.80;;
16854;SDS011;8543;54.522;18.550;2023-02-01T03:09:59;5.90;;;2.00;;
16854;SDS011;8543;54.522;18.550;2023-02-01T03:12:30;5.00;;;1.70;;
16854;SDS011;8543;54.522;18.550;2023-02-01T03:15:17;4.60;;;1.40;;
16854;SDS011;8543;54.522;18.550;2023-02-01T03:17:43;7.40;;;1.70;;
16854;SDS011;8543;54.522;18.550;2023-02-01T03:20:10;6.10;;;1.80;;
16854;SDS011;8543;54.522;18.550;2023-02-01T03:22:38;8.00;;;2.10;;
16854;SDS011;8543;54.522;18.550;2023-02-01T03:25:07;6.30;;;1.70;;
16854;SDS011;8543;54.522;18.550;2023-02-01T03:30:22;6.60;;;1.90;;
16854;SDS011;8543;54.522;18.550;2023-02-01T03:32:52;3.50;;;1.50;;
16854;SDS011;8543;54.522;18.550;2023-02-01T03:35:33;7.30;;;1.70;;
16854;SDS011;8543;54.522;18.550;2023-02-01T03:38:10;5.70;;;2.00;;
16854;SDS011;8543;54.522;18.550;2023-02-01T03:41:11;6.40;;;1.70;;
16854;SDS011;8543;54.522;18.550;2023-02-01T03:43:42;6.70;;;2.20;;
16854;SDS011;8543;54.522;18.550;2023-02-01T03:46:33;8.00;;;2.20;;
16854;SDS011;8543;54.522;18.550;2023-02-01T03:49:05;8.50;;;1.80;;
16854;SDS011;8543;54.522;18.550;2023-02-01T03:51:31;7.50;;;2.00;;
16854;SDS011;8543;54.522;18.550;2023-02-01T03:53:58;8.10;;;2.30;;
16854;SDS011;8543;54.522;18.550;2023-02-01T03:56:24;11.70;;;2.50;;
16854;SDS011;8543;54.522;18.550;2023-02-01T03:58:50;7.90;;;2.30;;
16854;SDS011;8543;54.522;18.550;2023-02-01T04:01:29;6.10;;;1.70;;
16854;SDS011;8543;54.522;18.550;2023-02-01T04:03:56;7.30;;;2.20;;
16854;SDS011;8543;54.522;18.550;2023-02-01T04:06:22;9.30;;;2.00;;
16854;SDS011;8543;54.522;18.550;2023-02-01T04:08:49;4.70;;;1.60;;
16854;SDS011;8543;54.522;18.550;2023-02-01T04:11:14;4.40;;;1.90;;
16854;SDS011;8543;54.522;18.550;2023-02-01T04:13:40;7.60;;;2.20;;
16854;SDS011;8543;54.522;18.550;2023-02-01T04:16:05;4.70;;;1.70;;
16854;SDS011;8543;54.522;18.550;2023-02-01T04:18:31;8.80;;;2.00;;
16854;SDS011;8543;54.522;18.550;2023-02-01T04:20:56;6.50;;;1.80;;
16854;SDS011;8543;54.522;18.550;2023-02-01T04:23:22;5.80;;;1.80;;
16854;SDS011;8543;54.522;18.550;2023-02-01T04:25:47;4.80;;;1.70;;
16854;SDS011;8543;54.522;18.550;2023-02-01T04:28:13;5.90;;;2.00;;
16854;SDS011;8543;54.522;18.550;2023-02-01T04:30:38;4.80;;;1.80;;
16854;SDS011;8543;54.522;18.550;2023-02-01T04:33:04;3.80;;;1.60;;
16854;SDS011;8543;54.522;18.550;2023-02-01T04:35:32;4.50;;;1.30;;
16854;SDS011;8543;54.522;18.550;2023-02-01T04:37:58;3.90;;;1.40;;
16854;SDS011;8543;54.522;18.550;2023-02-01T04:40:24;4.60;;;1.40;;
16854;SDS011;8543;54.522;18.550;2023-02-01T04:42:49;4.60;;;1.60;;
16854;SDS011;8543;54.522;18.550;2023-02-01T04:45:15;4.30;;;1.60;;
16854;SDS011;8543;54.522;18.550;2023-02-01T04:47:40;4.40;;;1.50;;
16854;SDS011;8543;54.522;18.550;2023-02-01T04:50:06;7.80;;;2.00;;
16854;SDS011;8543;54.522;18.550;2023-02-01T04:52:35;5.00;;;1.70;;
16854;SDS011;8543;54.522;18.550;2023-02-01T04:55:01;6.70;;;1.90;;
16854;SDS011;8543;54.522;18.550;2023-02-01T04:57:28;5.40;;;2.10;;
16854;SDS011;8543;54.522;18.550;2023-02-01T04:59:53;7.60;;;1.70;;
16854;SDS011;8543;54.522;18.550;2023-02-01T05:02:19;7.20;;;2.10;;
16854;SDS011;8543;54.522;18.550;2023-02-01T05:04:44;9.10;;;2.30;;
16854;SDS011;8543;54.522;18.550;2023-02-01T05:07:10;5.50;;;1.70;;
16854;SDS011;8543;54.522;18.550;2023-02-01T05:09:35;7.30;;;2.50;;
16854;SDS011;8543;54.522;18.550;2023-02-01T05:12:00;8.20;;;2.00;;
16854;SDS011;8543;54.522;18.550;2023-02-01T05:14:45;9.70;;;2.20;;
16854;SDS011;8543;54.522;18.550;2023-02-01T05:17:10;9.60;;;1.90;;
16854;SDS011;8543;54.522;18.550;2023-02-01T05:19:35;6.60;;;1.70;;
16854;SDS011;8543;54.522;18.550;2023-02-01T05:22:01;6.90;;;2.10;;
16854;SDS011;8543;54.522;18.550;2023-02-01T05:24:26;5.40;;;1.90;;
16854;SDS011;8543;54.522;18.550;2023-02-01T05:26:52;7.50;;;2.20;;
16854;SDS011;8543;54.522;18.550;2023-02-01T05:29:18;8.50;;;2.20;;
16854;SDS011;8543;54.522;18.550;2023-02-01T05:31:44;8.40;;;2.00;;
16854;SDS011;8543;54.522;18.550;2023-02-01T05:34:10;9.50;;;2.50;;
16854;SDS011;8543;54.522;18.550;2023-02-01T05:36:36;8.00;;;2.00;;
16854;SDS011;8543;54.522;18.550;2023-02-01T05:39:01;9.70;;;2.00;;
16854;SDS011;8543;54.522;18.550;2023-02-01T05:41:27;8.80;;;2.20;;
16854;SDS011;8543;54.522;18.550;2023-02-01T05:43:52;7.30;;;1.80;;
16854;SDS011;8543;54.522;18.550;2023-02-01T05:46:18;8.10;;;2.30;;
16854;SDS011;8543;54.522;18.550;2023-02-01T05:48:43;6.70;;;1.80;;
16854;SDS011;8543;54.522;18.550;2023-02-01T05:51:09;11.70;;;2.60;;
16854;SDS011;8543;54.522;18.550;2023-02-01T05:53:35;7.20;;;2.20;;
16854;SDS011;8543;54.522;18.550;2023-02-01T05:56:01;9.10;;;2.40;;
16854;SDS011;8543;54.522;18.550;2023-02-01T05:58:27;9.60;;;2.60;;
16854;SDS011;8543;54.522;18.550;2023-02-01T06:00:52;5.50;;;1.70;;
16854;SDS011;8543;54.522;18.550;2023-02-01T06:03:18;7.80;;;2.30;;
16854;SDS011;8543;54.522;18.550;2023-02-01T06:05:44;7.70;;;2.50;;
16854;SDS011;8543;54.522;18.550;2023-02-01T06:08:10;8.90;;;2.80;;
16854;SDS011;8543;54.522;18.550;2023-02-01T06:10:35;9.30;;;2.70;;
16854;SDS011;8543;54.522;18.550;2023-02-01T06:13:01;7.60;;;2.30;;
16854;SDS011;8543;54.522;18.550;2023-02-01T06:15:27;6.70;;;2.60;;
16854;SDS011;8543;54.522;18.550;2023-02-01T06:17:53;8.90;;;2.00;;
16854;SDS011;8543;54.522;18.550;2023-02-01T06:20:19;6.00;;;2.50;;
16854;SDS011;8543;54.522;18.550;2023-02-01T06:22:45;11.00;;;2.80;;
16854;SDS011;8543;54.522;18.550;2023-02-01T06:25:10;8.10;;;2.20;;
16854;SDS011;8543;54.522;18.550;2023-02-01T06:27:36;9.00;;;2.40;;
16854;SDS011;8543;54.522;18.550;2023-02-01T06:30:02;8.20;;;2.50;;
16854;SDS011;8543;54.522;18.550;2023-02-01T06:32:29;6.80;;;2.20;;
16854;SDS011;8543;54.522;18.550;2023-02-01T06:34:54;9.00;;;2.40;;
16854;SDS011;8543;54.522;18.550;2023-02-01T06:37:21;7.30;;;2.10;;
16854;SDS011;8543;54.522;18.550;2023-02-01T06:39:48;8.20;;;2.40;;
16854;SDS011;8543;54.522;18.550;2023-02-01T06:42:13;7.50;;;2.50;;
16854;SDS011;8543;54.522;18.550;2023-02-01T06:44:39;7.80;;;2.60;;
16854;SDS011;8543;54.522;18.550;2023-02-01T06:47:04;9.90;;;2.50;;
16854;SDS011;8543;54.522;18.550;2023-02-01T06:49:30;9.50;;;2.50;;
16854;SDS011;8543;54.522;18.550;2023-02-01T06:51:55;10.00;;;2.70;;
16854;SDS011;8543;54.522;18.550;2023-02-01T06:54:21;6.60;;;2.50;;
16854;SDS011;8543;54.522;18.550;2023-02-01T06:56:46;8.30;;;2.20;;
16854;SDS011;8543;54.522;18.550;2023-02-01T06:59:11;13.50;;;2.70;;
16854;SDS011;8543;54.522;18.550;2023-02-01T07:01:38;11.90;;;2.70;;
16854;SDS011;8543;54.522;18.550;2023-02-01T07:04:03;10.40;;;2.50;;
16854;SDS011;8543;54.522;18.550;2023-02-01T07:06:29;11.80;;;2.80;;
16854;SDS011;8543;54.522;18.550;2023-02-01T07:08:54;9.80;;;2.50;;
16854;SDS011;8543;54.522;18.550;2023-02-01T07:11:21;12.30;;;3.20;;
16854;SDS011;8543;54.522;18.550;2023-02-01T07:13:47;12.60;;;2.60;;
16854;SDS011;8543;54.522;18.550;2023-02-01T07:16:14;9.50;;;2.40;;
16854;SDS011;8543;54.522;18.550;2023-02-01T07:18:41;11.00;;;3.00;;
16854;SDS011;8543;54.522;18.550;2023-02-01T07:21:06;9.80;;;2.80;;
16854;SDS011;8543;54.522;18.550;2023-02-01T07:23:32;10.00;;;2.50;;
16854;SDS011;8543;54.522;18.550;2023-02-01T07:25:58;10.70;;;3.10;;
16854;SDS011;8543;54.522;18.550;2023-02-01T07:28:25;10.40;;;2.60;;
16854;SDS011;8543;54.522;18.550;2023-02-01T07:30:53;11.50;;;3.20;;
16854;SDS011;8543;54.522;18.550;2023-02-01T07:33:19;11.80;;;2.90;;
16854;SDS011;8543;54.522;18.550;2023-02-01T07:35:46;6.70;;;2.40;;
16854;SDS011;8543;54.522;18.550;2023-02-01T07:38:12;11.00;;;2.50;;
16854;SDS011;8543;54.522;18.550;2023-02-01T07:40:37;11.50;;;3.20;;
16854;SDS011;8543;54.522;18.550;2023-02-01T07:43:03;8.90;;;2.30;;
16854;SDS011;8543;54.522;18.550;2023-02-01T07:45:30;11.60;;;2.90;;
16854;SDS011;8543;54.522;18.550;2023-02-01T07:47:56;17.60;;;3.10;;
16854;SDS011;8543;54.522;18.550;2023-02-01T07:50:21;12.40;;;3.40;;
16854;SDS011;8543;54.522;18.550;2023-02-01T07:52:47;12.40;;;2.60;;
16854;SDS011;8543;54.522;18.550;2023-02-01T07:55:12;10.00;;;3.00;;
16854;SDS011;8543;54.522;18.550;2023-02-01T07:57:38;13.20;;;3.10;;
16854;SDS011;8543;54.522;18.550;2023-02-01T08:00:03;13.40;;;3.30;;
16854;SDS011;8543;54.522;18.550;2023-02-01T08:02:48;12.50;;;3.30;;
16854;SDS011;8543;54.522;18.550;2023-02-01T08:05:13;10.00;;;2.60;;
16854;SDS011;8543;54.522;18.550;2023-02-01T08:07:39;10.10;;;2.70;;
16854;SDS011;8543;54.522;18.550;2023-02-01T08:10:04;13.90;;;3.30;;
16854;SDS011;8543;54.522;18.550;2023-02-01T08:12:35;11.30;;;2.60;;
16854;SDS011;8543;54.522;18.550;2023-02-01T08:15:01;10.90;;;3.00;;
16854;SDS011;8543;54.522;18.550;2023-02-01T08:17:27;14.40;;;4.10;;
16854;SDS011;8543;54.522;18.550;2023-02-01T08:19:54;11.80;;;2.90;;
16854;SDS011;8543;54.522;18.550;2023-02-01T08:22:19;13.90;;;3.20;;
16854;SDS011;8543;54.522;18.550;2023-02-01T08:24:47;14.90;;;3.80;;
16854;SDS011;8543;54.522;18.550;2023-02-01T08:27:13;10.60;;;2.60;;
16854;SDS011;8543;54.522;18.550;2023-02-01T08:29:38;8.50;;;2.40;;
16854;SDS011;8543;54.522;18.550;2023-02-01T08:32:04;10.10;;;2.80;;
16854;SDS011;8543;54.522;18.550;2023-02-01T08:34:30;9.30;;;2.60;;
16854;SDS011;8543;54.522;18.550;2023-02-01T08:36:55;8.70;;;2.90;;
16854;SDS011;8543;54.522;18.550;2023-02-01T08:39:24;13.00;;;3.00;;
16854;SDS011;8543;54.522;18.550;2023-02-01T08:41:50;16.00;;;4.00;;
16854;SDS011;8543;54.522;18.550;2023-02-01T08:44:34;13.60;;;3.30;;
16854;SDS011;8543;54.522;18.550;2023-02-01T08:46:59;11.80;;;2.60;;
16854;SDS011;8543;54.522;18.550;2023-02-01T08:49:25;15.20;;;4.00;;
16854;SDS011;8543;54.522;18.550;2023-02-01T08:51:51;14.80;;;3.10;;
16854;SDS011;8543;54.522;18.550;2023-02-01T08:54:16;13.40;;;3.20;;
16854;SDS011;8543;54.522;18.550;2023-02-01T08:56:42;13.60;;;3.60;;
16854;SDS011;8543;54.522;18.550;2023-02-01T08:59:07;15.30;;;3.60;;
16854;SDS011;8543;54.522;18.550;2023-02-01T09:01:32;12.70;;;3.30;;
16854;SDS011;8543;54.522;18.550;2023-02-01T09:03:58;13.50;;;3.20;;
16854;SDS011;8543;54.522;18.550;2023-02-01T09:06:23;11.90;;;3.40;;
16854;SDS011;8543;54.522;18.550;2023-02-01T09:08:49;12.20;;;2.90;;
16854;SDS011;8543;54.522;18.550;2023-02-01T09:11:15;14.60;;;3.60;;
16854;SDS011;8543;54.522;18.550;2023-02-01T09:13:42;19.20;;;3.80;;
16854;SDS011;8543;54.522;18.550;2023-02-01T09:16:07;13.20;;;3.60;;
16854;SDS011;8543;54.522;18.550;2023-02-01T09:18:33;12.90;;;3.80;;
16854;SDS011;8543;54.522;18.550;2023-02-01T09:20:59;14.90;;;3.30;;
16854;SDS011;8543;54.522;18.550;2023-02-01T09:23:29;12.90;;;3.70;;
16854;SDS011;8543;54.522;18.550;2023-02-01T09:25:58;10.40;;;3.20;;
16854;SDS011;8543;54.522;18.550;2023-02-01T09:28:24;7.40;;;2.60;;
16854;SDS011;8543;54.522;18.550;2023-02-01T09:30:54;6.70;;;2.40;;
16854;SDS011;8543;54.522;18.550;2023-02-01T09:33:20;9.40;;;2.80;;
16854;SDS011;8543;54.522;18.550;2023-02-01T09:35:48;10.90;;;3.20;;
16854;SDS011;8543;54.522;18.550;2023-02-01T09:38:14;9.50;;;2.80;;
16854;SDS011;8543;54.522;18.550;2023-02-01T09:40:41;13.40;;;2.70;;
16854;SDS011;8543;54.522;18.550;2023-02-01T09:46:23;11.00;;;2.70;;
16854;SDS011;8543;54.522;18.550;2023-02-01T09:48:53;8.60;;;2.40;;
16854;SDS011;8543;54.522;18.550;2023-02-01T09:51:21;9.00;;;3.20;;
16854;SDS011;8543;54.522;18.550;2023-02-01T09:53:58;11.40;;;2.90;;
16854;SDS011;8543;54.522;18.550;2023-02-01T09:56:30;11.30;;;4.10;;
16854;SDS011;8543;54.522;18.550;2023-02-01T09:59:04;13.70;;;3.20;;
16854;SDS011;8543;54.522;18.550;2023-02-01T10:01:31;11.20;;;2.90;;
16854;SDS011;8543;54.522;18.550;2023-02-01T10:04:30;10.80;;;2.50;;
16854;SDS011;8543;54.522;18.550;2023-02-01T10:06:55;10.50;;;2.70;;
16854;SDS011;8543;54.522;18.550;2023-02-01T10:20:51;9.50;;;2.40;;
16854;SDS011;8543;54.522;18.550;2023-02-01T10:23:24;9.00;;;2.60;;
16854;SDS011;8543;54.522;18.550;2023-02-01T10:28:39;7.80;;;2.60;;
16854;SDS011;8543;54.522;18.550;2023-02-01T10:31:06;8.10;;;2.30;;
16854;SDS011;8543;54.522;18.550;2023-02-01T10:33:35;8.70;;;2.60;;
16854;SDS011;8543;54.522;18.550;2023-02-01T10:38:32;9.70;;;2.30;;
16854;SDS011;8543;54.522;18.550;2023-02-01T10:41:02;7.10;;;2.50;;
16854;SDS011;8543;54.522;18.550;2023-02-01T10:43:35;8.10;;;2.30;;
16854;SDS011;8543;54.522;18.550;2023-02-01T10:46:00;9.60;;;2.30;;
16854;SDS011;8543;54.522;18.550;2023-02-01T10:48:26;8.40;;;2.60;;
16854;SDS011;8543;54.522;18.550;2023-02-01T10:50:58;11.60;;;2.80;;
16854;SDS011;8543;54.522;18.550;2023-02-01T10:53:45;6.30;;;2.20;;
16854;SDS011;8543;54.522;18.550;2023-02-01T10:56:19;6.30;;;2.80;;
16854;SDS011;8543;54.522;18.550;2023-02-01T10:58:47;9.50;;;2.60;;
16854;SDS011;8543;54.522;18.550;2023-02-01T11:01:20;6.90;;;2.80;;
16854;SDS011;8543;54.522;18.550;2023-02-01T11:03:53;10.50;;;2.70;;
16854;SDS011;8543;54.522;18.550;2023-02-01T11:08:57;7.60;;;2.20;;
16854;SDS011;8543;54.522;18.550;2023-02-01T11:11:24;4.30;;;1.80;;
16854;SDS011;8543;54.522;18.550;2023-02-01T11:13:54;6.20;;;1.90;;
16854;SDS011;8543;54.522;18.550;2023-02-01T11:16:33;4.50;;;1.80;;
16854;SDS011;8543;54.522;18.550;2023-02-01T11:19:03;6.60;;;2.10;;
16854;SDS011;8543;54.522;18.550;2023-02-01T11:21:29;8.40;;;2.10;;
16854;SDS011;8543;54.522;18.550;2023-02-01T11:23:54;6.10;;;2.10;;
16854;SDS011;8543;54.522;18.550;2023-02-01T11:26:22;6.00;;;2.10;;
16854;SDS011;8543;54.522;18.550;2023-02-01T11:28:59;10.00;;;2.70;;
16854;SDS011;8543;54.522;18.550;2023-02-01T11:31:28;6.90;;;2.30;;
16854;SDS011;8543;54.522;18.550;2023-02-01T11:34:04;8.40;;;2.50;;
16854;SDS011;8543;54.522;18.550;2023-02-01T11:36:36;10.00;;;2.40;;
16854;SDS011;8543;54.522;18.550;2023-02-01T11:44:28;6.90;;;2.20;;
16854;SDS011;8543;54.522;18.550;2023-02-01T11:49:45;8.00;;;2.40;;
16854;SDS011;8543;54.522;18.550;2023-02-01T11:55:13;10.90;;;2.70;;
16854;SDS011;8543;54.522;18.550;2023-02-01T12:05:47;5.10;;;2.00;;
16854;SDS011;8543;54.522;18.550;2023-02-01T12:08:46;8.80;;;2.20;;
16854;SDS011;8543;54.522;18.550;2023-02-01T12:11:32;8.00;;;2.20;;
16854;SDS011;8543;54.522;18.550;2023-02-01T12:24:46;5.70;;;1.90;;
16854;SDS011;8543;54.522;18.550;2023-02-01T12:29:56;8.70;;;2.00;;
16854;SDS011;8543;54.522;18.550;2023-02-01T12:43:16;7.60;;;2.20;;
16854;SDS011;8543;54.522;18.550;2023-02-01T12:46:01;10.10;;;3.10;;
16854;SDS011;8543;54.522;18.550;2023-02-01T12:51:09;4.60;;;1.70;;
16854;SDS011;8543;54.522;18.550;2023-02-01T12:53:50;4.10;;;1.80;;
16854;SDS011;8543;54.522;18.550;2023-02-01T12:56:26;5.30;;;1.70;;
16854;SDS011;8543;54.522;18.550;2023-02-01T12:58:58;6.00;;;2.20;;
16854;SDS011;8543;54.522;18.550;2023-02-01T13:06:41;5.40;;;1.80;;
16854;SDS011;8543;54.522;18.550;2023-02-01T13:11:40;3.60;;;1.70;;
16854;SDS011;8543;54.522;18.550;2023-02-01T13:16:56;6.30;;;2.20;;
16854;SDS011;8543;54.522;18.550;2023-02-01T13:19:35;7.70;;;2.70;;
16854;SDS011;8543;54.522;18.550;2023-02-01T13:24:57;6.30;;;1.90;;
16854;SDS011;8543;54.522;18.550;2023-02-01T13:27:28;5.10;;;2.10;;
16854;SDS011;8543;54.522;18.550;2023-02-01T13:30:03;4.70;;;2.10;;
16854;SDS011;8543;54.522;18.550;2023-02-01T13:43:09;4.00;;;1.70;;
16854;SDS011;8543;54.522;18.550;2023-02-01T13:45:42;8.40;;;2.40;;
16854;SDS011;8543;54.522;18.550;2023-02-01T13:48:17;8.70;;;2.00;;
16854;SDS011;8543;54.522;18.550;2023-02-01T13:50:50;6.60;;;2.10;;
16854;SDS011;8543;54.522;18.550;2023-02-01T13:53:18;5.20;;;2.20;;
16854;SDS011;8543;54.522;18.550;2023-02-01T13:55:57;9.90;;;2.70;;
16854;SDS011;8543;54.522;18.550;2023-02-01T13:58:32;7.30;;;2.20;;
16854;SDS011;8543;54.522;18.550;2023-02-01T14:03:50;6.90;;;2.20;;
16854;SDS011;8543;54.522;18.550;2023-02-01T14:11:52;5.90;;;2.50;;
16854;SDS011;8543;54.522;18.550;2023-02-01T14:17:29;7.40;;;2.50;;
16854;SDS011;8543;54.522;18.550;2023-02-01T14:19:35;13.80;;;3.00;;
16854;SDS011;8543;54.522;18.550;2023-02-01T14:22:32;8.30;;;2.70;;
16854;SDS011;8543;54.522;18.550;2023-02-01T14:25:04;7.50;;;2.70;;
16854;SDS011;8543;54.522;18.550;2023-02-01T14:27:43;7.30;;;2.80;;
16854;SDS011;8543;54.522;18.550;2023-02-01T14:30:14;6.10;;;1.90;;
16854;SDS011;8543;54.522;18.550;2023-02-01T14:32:40;5.90;;;2.00;;
16854;SDS011;8543;54.522;18.550;2023-02-01T14:35:18;4.20;;;1.70;;
16854;SDS011;8543;54.522;18.550;2023-02-01T14:37:50;5.00;;;1.90;;
16854;SDS011;8543;54.522;18.550;2023-02-01T14:40:26;4.90;;;2.00;;
16854;SDS011;8543;54.522;18.550;2023-02-01T14:42:53;6.70;;;1.80;;
16854;SDS011;8543;54.522;18.550;2023-02-01T14:58:01;3.40;;;1.90;;
16854;SDS011;8543;54.522;18.550;2023-02-01T15:00:31;3.60;;;1.80;;
16854;SDS011;8543;54.522;18.550;2023-02-01T15:03:15;2.80;;;1.60;;
16854;SDS011;8543;54.522;18.550;2023-02-01T15:05:52;4.20;;;1.80;;
16854;SDS011;8543;54.522;18.550;2023-02-01T15:08:23;6.10;;;1.90;;
16854;SDS011;8543;54.522;18.550;2023-02-01T15:10:51;3.40;;;1.70;;
16854;SDS011;8543;54.522;18.550;2023-02-01T15:13:26;5.00;;;1.80;;
16854;SDS011;8543;54.522;18.550;2023-02-01T15:16:00;6.20;;;2.10;;
16854;SDS011;8543;54.522;18.550;2023-02-01T15:18:26;5.20;;;2.00;;
16854;SDS011;8543;54.522;18.550;2023-02-01T15:20:59;7.50;;;2.40;;
16854;SDS011;8543;54.522;18.550;2023-02-01T15:23:26;5.40;;;2.10;;
16854;SDS011;8543;54.522;18.550;2023-02-01T15:25:52;4.40;;;1.90;;
16854;SDS011;8543;54.522;18.550;2023-02-01T15:28:18;5.70;;;1.90;;
16854;SDS011;8543;54.522;18.550;2023-02-01T15:33:26;3.90;;;2.00;;
16854;SDS011;8543;54.522;18.550;2023-02-01T15:35:53;7.20;;;2.10;;
16854;SDS011;8543;54.522;18.550;2023-02-01T15:38:41;9.60;;;2.40;;
16854;SDS011;8543;54.522;18.550;2023-02-01T15:41:17;5.50;;;2.00;;
16854;SDS011;8543;54.522;18.550;2023-02-01T15:43:47;5.00;;;2.10;;
16854;SDS011;8543;54.522;18.550;2023-02-01T15:46:16;7.10;;;2.20;;
16854;SDS011;8543;54.522;18.550;2023-02-01T15:48:46;6.40;;;2.10;;
16854;SDS011;8543;54.522;18.550;2023-02-01T15:51:14;6.70;;;2.20;;
16854;SDS011;8543;54.522;18.550;2023-02-01T15:53:48;7.20;;;2.10;;
16854;SDS011;8543;54.522;18.550;2023-02-01T15:56:16;6.40;;;2.30;;
16854;SDS011;8543;54.522;18.550;2023-02-01T15:58:48;7.50;;;2.80;;
16854;SDS011;8543;54.522;18.550;2023-02-01T16:01:16;7.80;;;2.70;;
16854;SDS011;8543;54.522;18.550;2023-02-01T16:03:43;7.10;;;2.50;;
16854;SDS011;8543;54.522;18.550;2023-02-01T16:06:10;7.30;;;2.40;;
16854;SDS011;8543;54.522;18.550;2023-02-01T16:11:27;8.50;;;2.30;;
16854;SDS011;8543;54.522;18.550;2023-02-01T16:13:55;6.90;;;2.60;;
16854;SDS011;8543;54.522;18.550;2023-02-01T16:16:21;8.70;;;2.50;;
16854;SDS011;8543;54.522;18.550;2023-02-01T16:18:46;14.70;;;2.90;;
16854;SDS011;8543;54.522;18.550;2023-02-01T16:21:12;7.80;;;2.40;;
16854;SDS011;8543;54.522;18.550;2023-02-01T16:23:37;9.30;;;3.30;;
16854;SDS011;8543;54.522;18.550;2023-02-01T16:26:03;7.20;;;2.10;;
16854;SDS011;8543;54.522;18.550;2023-02-01T16:28:29;9.90;;;2.70;;
16854;SDS011;8543;54.522;18.550;2023-02-01T16:30:55;6.00;;;2.20;;
16854;SDS011;8543;54.522;18.550;2023-02-01T16:33:20;8.70;;;2.60;;
16854;SDS011;8543;54.522;18.550;2023-02-01T16:35:50;11.00;;;2.30;;
16854;SDS011;8543;54.522;18.550;2023-02-01T16:38:17;11.60;;;3.40;;
16854;SDS011;8543;54.522;18.550;2023-02-01T16:40:46;9.50;;;2.70;;
16854;SDS011;8543;54.522;18.550;2023-02-01T16:43:15;7.40;;;2.40;;
16854;SDS011;8543;54.522;18.550;2023-02-01T16:45:43;14.50;;;2.50;;
16854;SDS011;8543;54.522;18.550;2023-02-01T16:50:46;8.10;;;2.20;;
16854;SDS011;8543;54.522;18.550;2023-02-01T16:53:14;8.80;;;2.00;;
16854;SDS011;8543;54.522;18.550;2023-02-01T16:55:42;6.80;;;2.00;;
16854;SDS011;8543;54.522;18.550;2023-02-01T16:58:08;7.20;;;2.10;;
16854;SDS011;8543;54.522;18.550;2023-02-01T17:00:34;7.30;;;2.50;;
16854;SDS011;8543;54.522;18.550;2023-02-01T17:03:02;7.20;;;2.70;;
16854;SDS011;8543;54.522;18.550;2023-02-01T17:05:27;9.90;;;2.90;;
16854;SDS011;8543;54.522;18.550;2023-02-01T17:07:54;11.50;;;3.00;;
16854;SDS011;8543;54.522;18.550;2023-02-01T17:10:22;4.80;;;2.10;;
16854;SDS011;8543;54.522;18.550;2023-02-01T17:12:49;6.80;;;2.10;;
16854;SDS011;8543;54.522;18.550;2023-02-01T17:15:14;8.20;;;2.40;;
16854;SDS011;8543;54.522;18.550;2023-02-01T17:17:40;6.40;;;2.30;;
16854;SDS011;8543;54.522;18.550;2023-02-01T17:20:17;7.90;;;2.60;;
16854;SDS011;8543;54.522;18.550;2023-02-01T17:22:46;8.30;;;3.00;;
16854;SDS011;8543;54.522;18.550;2023-02-01T17:25:19;9.80;;;2.50;;
16854;SDS011;8543;54.522;18.550;2023-02-01T17:27:46;7.00;;;2.30;;
16854;SDS011;8543;54.522;18.550;2023-02-01T17:30:13;8.60;;;2.20;;
16854;SDS011;8543;54.522;18.550;2023-02-01T17:32:39;8.10;;;2.50;;
16854;SDS011;8543;54.522;18.550;2023-02-01T17:35:05;7.10;;;2.60;;